Time;durP1;ratioP1;P1;durP2;ratioP2;P2;SDS_P1;SDS_P2;PMS_P1;PMS_P2;Temp;Humidity;BMP_temperature;BMP_pressure;BME280_temperature;BME280_humidity;BME280_pressure;Samples;Min_cycle;Max_cycle;Signal;HPM_P1;HPM_P2
2022/09/09 00:00:05;;;;;;;4.97;1.83;;;;;;;15.93;100.00;100097.88;699711;28;1071;-68
2022/09/09 00:00:35;;;;;;;5.68;1.90;;;;;;;15.84;100.00;100093.81;697925;28;1382;-68
2022/09/09 00:01:37;;;;;;;4.57;1.70;;;;;;;15.75;100.00;100089.69;694668;28;4703;-68
2022/09/09 00:02:08;;;;;;;6.65;2.00;;;;;;;15.75;100.00;100089.69;692962;28;1390;-68
2022/09/09 00:02:29;;;;;;;5.70;1.83;;;;;;;15.73;100.00;100094.16;690019;28;1400;-67
2022/09/09 00:03:00;;;;;;;5.00;2.03;;;;;;;15.73;100.00;100095.91;688932;28;1315;-68
2022/09/09 00:03:32;;;;;;;5.53;1.83;;;;;;;15.71;100.00;100088.06;689514;28;1239;-68
2022/09/09 00:04:27;;;;;;;5.13;1.80;;;;;;;15.81;100.00;100093.91;689480;28;4267;-68
2022/09/09 00:05:16;;;;;;;4.53;1.80;;;;;;;15.81;100.00;100091.25;695694;28;1391;-68
2022/09/09 00:06:08;;;;;;;6.70;2.00;;;;;;;15.74;100.00;100090.63;697840;28;1326;-68
2022/09/09 00:06:35;;;;;;;7.60;2.10;;;;;;;15.72;100.00;100092.44;697607;28;1217;-68
2022/09/09 00:07:23;;;;;;;4.80;1.83;;;;;;;15.61;100.00;100087.53;692420;28;4304;-68
2022/09/09 00:07:50;;;;;;;5.28;1.90;;;;;;;15.56;100.00;100076.31;693315;28;1322;-68
2022/09/09 00:08:19;;;;;;;5.72;2.20;;;;;;;15.54;100.00;100080.75;693608;28;1419;-68
2022/09/09 00:08:49;;;;;;;4.07;1.88;;;;;;;15.57;100.00;100078.00;692749;28;1385;-68
2022/09/09 00:09:17;;;;;;;5.55;2.00;;;;;;;15.52;100.00;100079.09;692600;28;1215;-68
2022/09/09 00:09:49;;;;;;;5.20;2.00;;;;;;;15.50;100.00;100073.88;689971;28;4333;-68
2022/09/09 00:10:19;;;;;;;4.88;1.92;;;;;;;15.63;100.00;100079.56;695930;28;1262;-68
2022/09/09 00:10:41;;;;;;;4.85;1.80;;;;;;;15.59;100.00;100083.22;696570;28;1329;-68
2022/09/09 00:11:05;;;;;;;4.43;1.83;;;;;;;15.62;100.00;100078.72;690591;28;1361;-69
2022/09/09 00:11:41;;;;;;;5.88;2.00;;;;;;;15.69;100.00;100074.09;686497;28;1310;-68
2022/09/09 00:12:11;;;;;;;5.78;1.90;;;;;;;15.56;100.00;100073.69;686608;28;1187;-68
2022/09/09 00:12:50;;;;;;;6.28;2.08;;;;;;;15.51;100.00;100070.34;686470;28;1252;-68
2022/09/09 00:13:53;;;;;;;5.00;2.00;;;;;;;15.46;100.00;100075.75;693398;28;4667;-68
2022/09/09 00:14:22;;;;;;;5.95;1.80;;;;;;;15.43;100.00;100067.97;689238;28;1333;-68
2022/09/09 00:14:51;;;;;;;4.63;1.92;;;;;;;15.45;100.00;100073.16;690049;28;1980;-68
2022/09/09 00:15:20;;;;;;;5.22;1.95;;;;;;;15.53;100.00;100072.91;689267;28;1317;-68
2022/09/09 00:15:54;;;;;;;4.78;2.05;;;;;;;15.63;100.00;100077.81;689321;28;4441;-68
2022/09/09 00:16:23;;;;;;;5.13;2.30;;;;;;;15.72;100.00;100075.78;686600;28;3378;-68
2022/09/09 00:16:49;;;;;;;4.30;1.98;;;;;;;15.70;100.00;100072.31;687876;28;1350;-68
2022/09/09 00:17:25;;;;;;;4.25;1.88;;;;;;;15.58;100.00;100068.34;686533;28;1298;-69
2022/09/09 00:17:59;;;;;;;3.97;1.90;;;;;;;15.49;100.00;100067.75;687446;28;1654;-68
2022/09/09 00:18:53;;;;;;;6.35;1.98;;;;;;;15.37;100.00;100067.28;685683;28;1349;-68
2022/09/09 00:19:26;;;;;;;4.90;2.00;;;;;;;15.31;100.00;100063.97;681593;28;4789;-69
2022/09/09 00:20:10;;;;;;;4.95;2.00;;;;;;;15.32;100.00;100057.78;681412;28;1252;-68
2022/09/09 00:20:43;;;;;;;4.78;2.00;;;;;;;15.41;100.00;100071.56;692681;28;1218;-68
2022/09/09 00:21:10;;;;;;;5.82;1.92;;;;;;;15.39;100.00;100060.22;693096;28;1397;-68
2022/09/09 00:21:38;;;;;;;4.03;1.80;;;;;;;15.35;100.00;100061.25;694302;28;1131;-73
2022/09/09 00:22:07;;;;;;;4.28;1.85;;;;;;;15.41;100.00;100061.91;697354;28;5757;-68
2022/09/09 00:22:34;;;;;;;4.63;1.80;;;;;;;15.37;100.00;100057.66;697469;28;1254;-68
2022/09/09 00:23:06;;;;;;;4.78;2.05;;;;;;;15.34;100.00;100052.50;697117;28;1292;-68
2022/09/09 00:23:39;;;;;;;4.63;1.90;;;;;;;15.38;100.00;100058.50;695562;28;1370;-69
2022/09/09 00:24:01;;;;;;;5.22;2.10;;;;;;;15.30;100.00;100051.72;695295;28;1469;-69
2022/09/09 00:24:36;;;;;;;6.13;2.08;;;;;;;15.25;100.00;100052.78;693601;28;1416;-69
2022/09/09 00:25:10;;;;;;;4.35;2.13;;;;;;;15.21;100.00;100053.81;691970;28;4910;-69
2022/09/09 00:25:42;;;;;;;5.05;1.90;;;;;;;15.21;100.00;100057.28;695522;28;1233;-69
2022/09/09 00:26:19;;;;;;;5.28;2.15;;;;;;;15.24;100.00;100051.06;693042;28;1465;-69
2022/09/09 00:26:45;;;;;;;4.70;1.92;;;;;;;15.25;100.00;100058.06;695137;28;1327;-69
2022/09/09 00:27:31;;;;;;;5.85;2.15;;;;;;;15.37;100.00;100059.41;694857;28;1488;-69
2022/09/09 00:27:52;;;;;;;4.50;2.10;;;;;;;15.32;100.00;100049.03;690406;28;5192;-69
2022/09/09 00:28:20;;;;;;;5.75;2.17;;;;;;;15.31;100.00;100058.72;690367;28;1238;-68
2022/09/09 00:28:53;;;;;;;3.92;2.00;;;;;;;15.24;100.00;100054.53;690412;28;1290;-69
2022/09/09 00:29:30;;;;;;;4.68;2.10;;;;;;;15.20;100.00;100047.66;687722;28;1195;-69
2022/09/09 00:30:00;;;;;;;4.63;1.92;;;;;;;15.21;100.00;100049.41;690547;28;1274;-69
2022/09/09 00:30:24;;;;;;;6.00;1.90;;;;;;;15.24;100.00;100045.81;690385;28;1518;-69
2022/09/09 00:30:47;;;;;;;4.25;1.80;;;;;;;15.31;100.00;100050.81;691038;28;4421;-69
2022/09/09 00:31:13;;;;;;;4.55;1.77;;;;;;;15.40;100.00;100057.53;690873;28;1211;-69
2022/09/09 00:31:34;;;;;;;7.07;2.10;;;;;;;15.44;100.00;100061.78;688773;28;1752;-69
2022/09/09 00:32:00;;;;;;;5.38;1.80;;;;;;;15.47;100.00;100059.03;690064;28;1342;-69
2022/09/09 00:32:22;;;;;;;4.68;1.92;;;;;;;15.54;100.00;100059.69;687136;28;1289;-69
2022/09/09 00:32:44;;;;;;;4.40;1.80;;;;;;;15.59;100.00;100063.03;691494;28;1287;-69
2022/09/09 00:33:15;;;;;;;5.75;1.90;;;;;;;15.56;100.00;100065.78;693992;28;1333;-69
2022/09/09 00:33:36;;;;;;;5.25;1.90;;;;;;;15.52;100.00;100066.78;695832;28;2440;-69
2022/09/09 00:34:11;;;;;;;4.57;1.70;;;;;;;15.49;100.00;100061.63;693794;28;7141;-69
2022/09/09 00:34:32;;;;;;;7.30;1.92;;;;;;;15.41;100.00;100059.25;689974;28;2288;-69
2022/09/09 00:35:03;;;;;;;5.00;1.80;;;;;;;15.36;100.00;100070.88;689940;28;1999;-69
2022/09/09 00:35:47;;;;;;;5.75;2.05;;;;;;;15.27;100.00;100059.72;689258;28;1282;-68
2022/09/09 00:36:17;;;;;;;4.93;2.00;;;;;;;15.23;100.00;100059.88;692930;28;1257;-69
2022/09/09 00:36:38;;;;;;;4.57;1.95;;;;;;;15.21;100.00;100066.97;697464;28;4297;-69
2022/09/09 00:36:59;;;;;;;5.78;2.15;;;;;;;15.21;100.00;100059.94;697315;28;1525;-69
2022/09/09 00:37:22;;;;;;;7.65;2.17;;;;;;;15.25;100.00;100053.66;693987;28;1512;-69
2022/09/09 00:37:47;;;;;;;5.60;2.00;;;;;;;15.33;100.00;100056.88;692174;28;1294;-69
2022/09/09 00:38:15;;;;;;;4.93;2.05;;;;;;;15.45;100.00;100062.63;689236;28;1404;-70
2022/09/09 00:38:47;;;;;;;3.78;1.90;;;;;;;15.55;100.00;100065.81;687416;28;1368;-69
2022/09/09 00:39:31;;;;;;;4.53;2.00;;;;;;;15.65;100.00;100068.06;690375;28;1207;-69
2022/09/09 00:39:56;;;;;;;5.72;2.00;;;;;;;15.63;100.00;100064.63;691096;28;4266;-69
2022/09/09 00:40:42;;;;;;;5.03;2.00;;;;;;;15.63;100.00;100059.38;693227;28;1418;-69
2022/09/09 00:41:10;;;;;;;5.60;2.10;;;;;;;15.65;100.00;100068.06;681097;28;1497;-69
2022/09/09 00:41:50;;;;;;;4.28;1.80;;;;;;;15.75;100.00;100068.59;695925;28;1254;-68
2022/09/09 00:42:19;;;;;;;5.30;1.85;;;;;;;15.72;100.00;100071.34;693422;28;2167;-68
2022/09/09 00:42:44;;;;;;;4.72;2.00;;;;;;;15.72;100.00;100067.88;690983;28;4267;-68
2022/09/09 00:43:20;;;;;;;4.45;1.98;;;;;;;15.68;100.00;100063.63;691772;28;1687;-69
2022/09/09 00:43:42;;;;;;;6.03;2.10;;;;;;;15.62;100.00;100064.69;690596;28;1267;-69
2022/09/09 00:44:34;;;;;;;5.43;2.00;;;;;;;15.59;100.00;100060.41;692144;28;1227;-69
2022/09/09 00:45:25;;;;;;;5.93;2.10;;;;;;;15.53;100.00;100065.84;693197;28;1433;-69
2022/09/09 00:46:22;;;;;;;5.85;1.90;;;;;;;15.49;100.00;100065.13;694093;28;4512;-69
2022/09/09 00:47:20;;;;;;;4.82;2.08;;;;;;;15.49;100.00;100061.63;696593;28;1242;-69
2022/09/09 00:47:49;;;;;;;5.05;1.80;;;;;;;15.55;100.00;100061.41;695363;28;1297;-68
2022/09/09 00:48:11;;;;;;;4.32;2.00;;;;;;;15.70;100.00;100067.94;693562;28;1333;-69
2022/09/09 00:49:09;;;;;;;4.85;2.05;;;;;;;15.70;100.00;100065.28;694182;28;1239;-69
2022/09/09 00:49:35;;;;;;;4.50;1.95;;;;;;;15.65;100.00;100062.81;680520;28;5991;-69
2022/09/09 00:50:14;;;;;;;4.45;2.00;;;;;;;15.58;100.00;100063.94;687424;28;1307;-69
2022/09/09 00:50:55;;;;;;;4.88;2.00;;;;;;;15.51;100.00;100059.81;698271;28;1336;-69
2022/09/09 00:51:25;;;;;;;4.47;2.03;;;;;;;15.55;100.00;100063.16;698742;28;1320;-69
2022/09/09 00:52:07;;;;;;;5.72;2.05;;;;;;;15.54;100.00;100058.84;696752;28;1691;-69
2022/09/09 00:52:37;;;;;;;4.90;1.88;;;;;;;15.52;100.00;100064.16;697185;28;1210;-69
2022/09/09 00:53:10;;;;;;;6.95;2.10;;;;;;;15.47;100.00;100058.19;691334;28;1326;-69
2022/09/09 00:54:06;;;;;;;4.85;2.00;;;;;;;15.43;100.00;100067.97;691978;28;1341;-69
2022/09/09 00:54:36;;;;;;;3.65;1.90;;;;;;;15.52;100.00;100065.91;692895;28;1263;-69
2022/09/09 00:55:11;;;;;;;4.88;1.92;;;;;;;15.55;100.00;100066.69;692501;28;6086;-69
2022/09/09 00:55:56;;;;;;;5.15;1.88;;;;;;;15.47;100.00;100059.03;693638;28;1048;-69
2022/09/09 00:56:25;;;;;;;5.45;1.90;;;;;;;15.46;100.00;100067.00;693078;28;1169;-69
2022/09/09 00:57:00;;;;;;;6.00;2.30;;;;;;;15.42;100.00;100065.38;689920;28;1457;-69
2022/09/09 00:57:28;;;;;;;4.55;1.70;;;;;;;15.50;100.00;100069.47;689042;28;1262;-69
2022/09/09 00:57:52;;;;;;;4.07;1.85;;;;;;;15.53;100.00;100070.28;686596;28;4302;-69
2022/09/09 00:58:12;;;;;;;4.22;1.80;;;;;;;15.50;100.00;100064.19;689445;28;1254;-69
2022/09/09 00:58:33;;;;;;;3.92;1.77;;;;;;;15.48;100.00;100065.19;689998;28;1186;-69
2022/09/09 00:59:05;;;;;;;5.53;2.00;;;;;;;15.47;100.00;100068.72;686657;28;1276;-69
2022/09/09 00:59:36;;;;;;;4.78;2.00;;;;;;;15.49;100.00;100074.78;688509;28;1475;-69
2022/09/09 01:00:03;;;;;;;5.25;1.90;;;;;;;15.51;100.00;100072.97;689952;28;1230;-69
2022/09/09 01:00:27;;;;;;;4.90;2.00;;;;;;;15.55;100.00;100069.31;691100;28;1425;-69
2022/09/09 01:01:11;;;;;;;5.85;1.90;;;;;;;15.59;100.00;100067.41;694932;28;4297;-69
2022/09/09 01:01:32;;;;;;;5.13;2.08;;;;;;;15.60;100.00;100064.75;695449;28;1270;-69
2022/09/09 01:01:54;;;;;;;4.07;2.08;;;;;;;15.62;100.00;100073.44;691728;28;1464;-69
2022/09/09 01:02:53;;;;;;;5.13;1.98;;;;;;;15.65;100.00;100073.34;686678;28;1293;-69
2022/09/09 01:03:17;;;;;;;5.47;2.10;;;;;;;15.62;100.00;100068.19;685309;28;1302;-69
2022/09/09 01:03:47;;;;;;;5.22;1.90;;;;;;;15.65;100.00;100073.34;685396;28;4754;-69
2022/09/09 01:04:21;;;;;;;4.68;1.88;;;;;;;15.70;100.00;100069.69;687989;28;1341;-69
2022/09/09 01:04:42;;;;;;;3.80;1.67;;;;;;;15.73;100.00;100070.44;686185;28;1561;-69
2022/09/09 01:05:12;;;;;;;4.32;1.70;;;;;;;15.73;100.00;100070.44;687945;28;1286;-69
2022/09/09 01:05:33;;;;;;;4.45;1.92;;;;;;;15.74;100.00;100068.66;685897;28;1463;-69
2022/09/09 01:06:03;;;;;;;4.65;1.85;;;;;;;15.73;100.00;100066.94;684839;28;1282;-69
2022/09/09 01:06:36;;;;;;;4.20;1.75;;;;;;;15.72;100.00;100073.13;684656;28;1337;-69
2022/09/09 01:07:12;;;;;;;4.22;1.83;;;;;;;15.73;100.00;100069.56;693087;28;4731;-69
2022/09/09 01:07:32;;;;;;;4.78;1.80;;;;;;;15.75;100.00;100076.50;689165;28;1393;-69
2022/09/09 01:07:54;;;;;;;5.80;1.80;;;;;;;15.73;100.00;100065.16;688443;28;1403;-69
2022/09/09 01:08:36;;;;;;;5.45;1.70;;;;;;;15.78;100.00;100060.59;687991;28;1465;-69
2022/09/09 01:09:15;;;;;;;4.72;1.73;;;;;;;15.80;100.00;100064.06;689769;28;1344;-69
2022/09/09 01:09:48;;;;;;;3.78;1.80;;;;;;;15.82;100.00;100061.38;685307;28;1156;-69
2022/09/09 01:10:27;;;;;;;3.83;1.70;;;;;;;15.85;100.00;100060.41;690311;28;4873;-69
2022/09/09 01:10:53;;;;;;;4.65;1.77;;;;;;;15.82;100.00;100059.63;691251;28;1273;-69
2022/09/09 01:11:25;;;;;;;4.20;1.88;;;;;;;15.87;100.00;100061.19;689895;28;1219;-69
2022/09/09 01:12:01;;;;;;;4.38;1.70;;;;;;;15.87;100.00;100056.81;687303;28;1356;-69
2022/09/09 01:12:46;;;;;;;5.28;1.80;;;;;;;15.82;100.00;100064.00;685901;28;3796;-69
2022/09/09 01:13:24;;;;;;;4.50;1.80;;;;;;;15.74;100.00;100066.91;687582;28;6426;-69
2022/09/09 01:13:47;;;;;;;4.63;1.80;;;;;;;15.71;100.00;100060.88;692762;28;1090;-69
2022/09/09 01:14:20;;;;;;;4.18;1.75;;;;;;;15.71;100.00;100060.88;689467;28;1193;-69
2022/09/09 01:14:56;;;;;;;5.30;1.80;;;;;;;15.64;100.00;100054.94;690011;28;1975;-69
2022/09/09 01:15:24;;;;;;;5.20;1.70;;;;;;;15.65;100.00;100061.94;691429;28;1447;-69
2022/09/09 01:15:46;;;;;;;3.45;1.90;;;;;;;15.60;100.00;100055.97;691330;28;4476;-69
2022/09/09 01:16:11;;;;;;;4.03;1.70;;;;;;;15.61;100.00;100061.19;691362;28;2049;-69
2022/09/09 01:16:33;;;;;;;4.60;1.63;;;;;;;15.62;100.00;100062.91;686750;28;1523;-69
2022/09/09 01:16:59;;;;;;;4.25;1.70;;;;;;;15.65;100.00;100065.44;690055;28;1370;-69
2022/09/09 01:17:26;;;;;;;5.05;1.95;;;;;;;15.66;100.00;100059.25;685600;28;1420;-69
2022/09/09 01:18:12;;;;;;;4.13;1.77;;;;;;;15.69;100.00;100067.94;683326;28;1276;-69
2022/09/09 01:18:40;;;;;;;4.38;1.67;;;;;;;15.69;100.00;100066.19;689304;28;1418;-69
2022/09/09 01:19:02;;;;;;;3.47;1.60;;;;;;;15.72;100.00;100068.72;691508;28;4911;-69
2022/09/09 01:19:45;;;;;;;4.82;1.80;;;;;;;15.76;100.00;100069.47;689640;28;1282;-70
2022/09/09 01:20:13;;;;;;;3.75;1.70;;;;;;;15.69;100.00;100071.47;691359;28;1597;-70
2022/09/09 01:20:53;;;;;;;4.85;1.80;;;;;;;15.70;100.00;100067.03;688031;28;1178;-69
2022/09/09 01:21:26;;;;;;;4.03;1.60;;;;;;;15.76;100.00;100065.06;688291;28;1298;-70
2022/09/09 01:21:55;;;;;;;5.82;1.70;;;;;;;15.87;100.00;100066.47;690555;28;5365;-69
2022/09/09 01:22:36;;;;;;;4.80;1.70;;;;;;;15.87;100.00;100062.06;692460;28;1438;-70
2022/09/09 01:23:09;;;;;;;4.47;1.60;;;;;;;15.83;100.00;100069.22;692799;28;1275;-69
2022/09/09 01:24:01;;;;;;;4.68;1.63;;;;;;;15.79;100.00;100059.69;692053;28;1215;-69
2022/09/09 01:24:40;;;;;;;3.85;1.60;;;;;;;15.92;100.00;100067.16;691267;28;1787;-69
2022/09/09 01:26:12;;;;;;;2.97;1.60;;;;;;;15.93;100.00;100063.63;689477;28;5035;-69
2022/09/09 01:26:42;;;;;;;4.63;1.60;;;;;;;15.93;100.00;100066.25;681832;28;1231;-69
2022/09/09 01:27:10;;;;;;;5.65;1.80;;;;;;;15.88;100.00;100063.81;691451;28;1245;-69
2022/09/09 01:27:32;;;;;;;5.78;1.60;;;;;;;15.86;100.00;100070.88;689594;28;1365;-71
2022/09/09 01:27:56;;;;;;;4.60;1.50;;;;;;;15.85;100.00;100069.16;688336;28;4352;-69
2022/09/09 01:28:22;;;;;;;4.28;1.67;;;;;;;15.82;100.00;100072.78;688091;28;1326;-69
2022/09/09 01:28:48;;;;;;;4.70;1.77;;;;;;;15.81;100.00;100071.06;688661;28;1367;-68
2022/09/09 01:29:14;;;;;;;4.60;1.58;;;;;;;15.80;100.00;100061.44;688121;28;1302;-69
2022/09/09 01:29:35;;;;;;;4.82;1.60;;;;;;;15.81;100.00;100064.91;693283;28;1215;-69
2022/09/09 01:29:59;;;;;;;3.83;1.50;;;;;;;15.81;100.00;100067.53;694548;28;1301;-68
2022/09/09 01:30:22;;;;;;;4.20;1.80;;;;;;;15.81;100.00;100064.91;692322;28;1375;-69
2022/09/09 01:30:42;;;;;;;4.60;1.70;;;;;;;15.81;100.00;100067.53;688091;28;4346;-69
2022/09/09 01:31:09;;;;;;;3.97;1.60;;;;;;;15.79;100.00;100064.09;690180;28;1555;-69
2022/09/09 01:31:56;;;;;;;5.30;1.80;;;;;;;15.83;100.00;100071.00;685067;28;1848;-69
2022/09/09 01:32:43;;;;;;;4.25;1.60;;;;;;;15.85;100.00;100066.53;686292;28;1512;-69
2022/09/09 01:33:05;;;;;;;4.13;1.73;;;;;;;15.88;100.00;100073.47;692427;28;1555;-69
2022/09/09 01:33:26;;;;;;;3.58;1.67;;;;;;;15.87;100.00;100067.34;693276;28;1476;-69
2022/09/09 01:33:46;;;;;;;3.83;1.50;;;;;;;15.88;100.00;100068.19;694981;28;5186;-69
2022/09/09 01:34:12;;;;;;;4.80;1.60;;;;;;;15.85;100.00;100077.06;696008;28;1396;-69
2022/09/09 01:34:38;;;;;;;5.25;1.65;;;;;;;15.79;100.00;100074.63;694258;28;1369;-69
2022/09/09 01:34:59;;;;;;;3.95;1.80;;;;;;;15.71;100.00;100068.78;689718;28;1939;-69
2022/09/09 01:35:46;;;;;;;4.83;1.63;;;;;;;15.62;100.00;100072.59;689711;28;1490;-69
2022/09/09 01:36:13;;;;;;;4.53;1.60;;;;;;;15.64;100.00;100065.50;687546;28;1416;-69
2022/09/09 01:37:08;;;;;;;4.85;1.73;;;;;;;15.56;100.00;100060.50;690589;28;4310;-69
2022/09/09 01:37:30;;;;;;;4.15;1.67;;;;;;;15.55;100.00;100058.78;686714;28;1462;-69
2022/09/09 01:37:51;;;;;;;3.72;1.30;;;;;;;15.62;100.00;100056.78;692626;28;1297;-69
2022/09/09 01:38:13;;;;;;;4.55;1.33;;;;;;;15.66;100.00;100058.41;692635;28;1706;-69
2022/09/09 01:38:35;;;;;;;4.40;1.48;;;;;;;15.70;100.00;100067.94;687177;28;1319;-69
2022/09/09 01:38:56;;;;;;;3.70;1.60;;;;;;;15.72;100.00;100067.88;683927;28;5272;-70
2022/09/09 01:39:20;;;;;;;6.82;1.77;;;;;;;15.68;100.00;100061.84;687566;28;1270;-69
2022/09/09 01:39:47;;;;;;;4.13;1.48;;;;;;;15.70;100.00;100069.69;685672;28;4355;-69
2022/09/09 01:40:10;;;;;;;5.53;1.90;;;;;;;15.66;100.00;100067.16;687367;28;1305;-69
2022/09/09 01:40:32;;;;;;;6.32;1.70;;;;;;;15.54;100.00;100058.84;691391;28;1454;-69
2022/09/09 01:40:54;;;;;;;4.90;1.58;;;;;;;15.52;100.00;100061.53;689457;28;1406;-69
2022/09/09 01:41:18;;;;;;;4.07;1.50;;;;;;;15.52;100.00;100066.78;689766;28;1508;-69
2022/09/09 01:41:44;;;;;;;4.38;1.50;;;;;;;15.55;100.00;100064.03;690595;28;1381;-70
2022/09/09 01:42:09;;;;;;;4.15;1.55;;;;;;;15.58;100.00;100066.56;687524;28;1472;-69
2022/09/09 01:42:30;;;;;;;4.63;1.60;;;;;;;15.51;100.00;100059.81;691889;28;1269;-70
2022/09/09 01:42:51;;;;;;;5.18;1.67;;;;;;;15.48;100.00;100066.03;695318;28;4249;-69
2022/09/09 01:43:13;;;;;;;3.95;1.60;;;;;;;15.50;100.00;100058.91;695169;28;1224;-69
2022/09/09 01:43:34;;;;;;;3.85;1.70;;;;;;;15.53;100.00;100055.31;692174;28;1358;-69
2022/09/09 01:43:56;;;;;;;4.68;1.67;;;;;;;15.48;100.00;100065.19;687450;28;1475;-70
2022/09/09 01:44:19;;;;;;;4.45;1.67;;;;;;;15.53;100.00;100062.38;689530;28;1454;-69
2022/09/09 01:44:40;;;;;;;4.05;1.70;;;;;;;15.53;100.00;100060.59;689314;28;1267;-69
2022/09/09 01:45:01;;;;;;;3.67;1.70;;;;;;;15.60;100.00;100066.50;691214;28;1434;-69
2022/09/09 01:45:23;;;;;;;4.30;1.90;;;;;;;15.62;100.00;100062.91;690239;28;1410;-69
2022/09/09 01:45:46;;;;;;;4.70;1.70;;;;;;;15.61;100.00;100066.47;693200;28;4303;-69
2022/09/09 01:46:07;;;;;;;5.07;1.63;;;;;;;15.65;100.00;100065.44;692390;28;1273;-69
2022/09/09 01:46:30;;;;;;;4.00;1.50;;;;;;;15.69;100.00;100066.19;688619;28;1223;-69
2022/09/09 01:46:51;;;;;;;3.60;1.40;;;;;;;15.69;100.00;100067.94;689028;28;1266;-69
2022/09/09 01:47:15;;;;;;;3.95;1.60;;;;;;;15.66;100.00;100064.53;685211;28;1393;-69
2022/09/09 01:47:56;;;;;;;3.65;1.58;;;;;;;15.60;100.00;100070.03;690910;28;1386;-69
2022/09/09 01:48:33;;;;;;;5.22;1.83;;;;;;;15.46;100.00;100057.31;695051;28;1289;-69
2022/09/09 01:49:01;;;;;;;4.30;1.52;;;;;;;15.44;100.00;100066.19;693063;28;4949;-69
2022/09/09 01:49:22;;;;;;;3.30;1.50;;;;;;;15.40;100.00;100072.50;695294;28;1324;-69
2022/09/09 01:49:43;;;;;;;2.90;1.45;;;;;;;15.35;100.00;100070.00;692214;28;1363;-69
2022/09/09 01:50:15;;;;;;;3.13;1.50;;;;;;;15.31;100.00;100063.97;692326;28;1183;-69
2022/09/09 01:50:36;;;;;;;4.40;1.50;;;;;;;15.28;100.00;100060.59;689065;28;1302;-69
2022/09/09 01:50:56;;;;;;;4.75;1.60;;;;;;;15.27;100.00;100059.72;684738;28;1390;-69
2022/09/09 01:51:18;;;;;;;4.90;1.55;;;;;;;15.27;100.00;100064.13;687690;28;1256;-70
2022/09/09 01:51:41;;;;;;;3.92;1.70;;;;;;;15.24;100.00;100065.09;690107;28;4316;-69
2022/09/09 01:52:04;;;;;;;4.47;1.67;;;;;;;15.28;100.00;100058.81;690950;28;1283;-70
2022/09/09 01:52:32;;;;;;;3.53;1.58;;;;;;;15.28;100.00;100060.59;692695;28;1262;-69
2022/09/09 01:52:57;;;;;;;4.00;1.63;;;;;;;15.27;100.00;100070.28;692706;28;1028;-69
2022/09/09 01:53:22;;;;;;;5.13;1.70;;;;;;;15.27;100.00;100065.00;686269;28;1360;-69
2022/09/09 01:53:43;;;;;;;5.60;1.60;;;;;;;15.27;100.00;100062.38;691353;28;1333;-69
2022/09/09 01:54:06;;;;;;;4.90;1.63;;;;;;;15.27;100.00;100056.22;690002;28;1263;-69
2022/09/09 01:54:31;;;;;;;4.38;1.60;;;;;;;15.21;100.00;100062.56;686628;28;1305;-69
2022/09/09 01:54:54;;;;;;;4.22;1.60;;;;;;;15.20;100.00;100060.81;681656;28;4289;-69
2022/09/09 01:55:29;;;;;;;3.53;1.48;;;;;;;15.13;100.00;100065.47;683478;28;1633;-69
2022/09/09 01:56:02;;;;;;;4.07;1.55;;;;;;;15.10;100.00;100060.28;685944;28;1219;-70
2022/09/09 01:56:42;;;;;;;4.63;1.50;;;;;;;15.09;100.00;100065.59;688460;28;1477;-68
2022/09/09 01:57:22;;;;;;;4.07;1.80;;;;;;;15.13;100.00;100061.94;688496;28;1316;-69
2022/09/09 01:58:11;;;;;;;4.55;1.58;;;;;;;15.14;100.00;100071.56;688086;28;4350;-70
2022/09/09 01:58:48;;;;;;;4.00;1.70;;;;;;;15.05;100.00;100069.25;689624;28;1566;-69
2022/09/09 01:59:24;;;;;;;7.18;1.77;;;;;;;15.03;100.00;100060.56;688608;28;1466;-69
2022/09/09 02:00:09;;;;;;;4.35;1.50;;;;;;;15.09;100.00;100068.22;692662;28;1028;-69
2022/09/09 02:00:42;;;;;;;3.50;1.60;;;;;;;15.11;100.00;100064.63;692653;28;1182;-69
2022/09/09 02:01:17;;;;;;;5.05;1.58;;;;;;;15.17;100.00;100071.47;694034;28;6353;-69
2022/09/09 02:01:50;;;;;;;5.25;1.50;;;;;;;15.19;100.00;100069.66;695431;28;1246;-69
2022/09/09 02:02:18;;;;;;;2.75;1.45;;;;;;;15.24;100.00;100066.88;696216;28;1465;-69
2022/09/09 02:03:09;;;;;;;3.30;1.52;;;;;;;15.21;100.00;100067.81;698021;28;1299;-70
2022/09/09 02:03:57;;;;;;;3.67;1.50;;;;;;;15.24;100.00;100070.34;692093;28;4489;-69
2022/09/09 02:04:24;;;;;;;4.18;1.40;;;;;;;15.30;100.00;100070.16;694076;28;1413;-69
2022/09/09 02:04:56;;;;;;;4.47;1.40;;;;;;;15.41;100.00;100068.91;694431;28;1637;-69
2022/09/09 02:05:38;;;;;;;3.63;1.33;;;;;;;15.41;100.00;100069.78;694262;28;1277;-69
2022/09/09 02:06:22;;;;;;;3.45;1.40;;;;;;;15.43;100.00;100069.75;692187;28;1242;-69
2022/09/09 02:06:48;;;;;;;4.85;1.50;;;;;;;15.48;100.00;100070.44;691432;28;4519;-69
2022/09/09 02:07:39;;;;;;;4.07;1.40;;;;;;;15.57;100.00;100074.53;687231;28;1469;-69
2022/09/09 02:08:11;;;;;;;3.88;1.40;;;;;;;15.49;100.00;100075.66;683905;28;1419;-69
2022/09/09 02:08:46;;;;;;;4.35;1.77;;;;;;;15.47;100.00;100076.63;683542;28;3326;-69
2022/09/09 02:09:11;;;;;;;3.38;1.55;;;;;;;15.46;100.00;100061.72;685866;28;1196;-69
2022/09/09 02:09:34;;;;;;;4.78;1.67;;;;;;;15.46;100.00;100069.63;684559;28;1545;-69
2022/09/09 02:10:21;;;;;;;5.13;1.60;;;;;;;15.47;100.00;100066.94;683123;28;4327;-69
2022/09/09 02:11:03;;;;;;;4.30;1.40;;;;;;;15.55;100.00;100071.06;688447;28;1462;-69
2022/09/09 02:11:31;;;;;;;4.18;1.40;;;;;;;15.54;100.00;100062.31;686685;28;1515;-69
2022/09/09 02:12:13;;;;;;;3.95;1.38;;;;;;;15.58;100.00;100069.19;690106;28;1202;-69
2022/09/09 02:12:47;;;;;;;4.60;1.80;;;;;;;15.56;100.00;100064.91;691079;28;4584;-68
2022/09/09 02:13:12;;;;;;;3.95;1.58;;;;;;;15.59;100.00;100070.94;691491;28;1686;-69
2022/09/09 02:13:36;;;;;;;3.45;1.40;;;;;;;15.64;100.00;100076.88;691160;28;1342;-68
2022/09/09 02:14:05;;;;;;;3.58;1.40;;;;;;;15.68;100.00;100067.09;692874;28;1318;-68
2022/09/09 02:14:33;;;;;;;4.25;1.42;;;;;;;15.66;100.00;100067.16;694945;28;1737;-69
2022/09/09 02:15:00;;;;;;;4.40;1.42;;;;;;;15.68;100.00;100072.38;692678;28;1930;-68
2022/09/09 02:16:00;;;;;;;4.18;1.50;;;;;;;15.86;100.00;100064.75;690859;28;1579;-69
2022/09/09 02:16:45;;;;;;;2.97;1.50;;;;;;;15.87;100.00;100071.72;685119;28;4947;-68
2022/09/09 02:17:13;;;;;;;4.53;1.40;;;;;;;15.87;100.00;100072.63;695294;28;1262;-68
2022/09/09 02:17:58;;;;;;;4.00;1.50;;;;;;;15.81;100.00;100071.06;695262;28;1474;-68
2022/09/09 02:18:29;;;;;;;3.95;1.40;;;;;;;15.84;100.00;100070.09;688743;28;1246;-69
2022/09/09 02:19:02;;;;;;;4.30;1.30;;;;;;;15.82;100.00;100070.16;686333;28;4313;-69
2022/09/09 02:19:48;;;;;;;3.70;1.50;;;;;;;15.81;100.00;100063.16;685980;28;1220;-69
2022/09/09 02:20:24;;;;;;;3.50;1.40;;;;;;;15.86;100.00;100065.63;689537;28;1268;-69
2022/09/09 02:20:50;;;;;;;3.97;1.30;;;;;;;15.83;100.00;100071.00;684445;28;1519;-69
2022/09/09 02:21:13;;;;;;;3.03;1.50;;;;;;;15.81;100.00;100067.53;683887;28;1557;-68
2022/09/09 02:21:34;;;;;;;3.38;1.40;;;;;;;15.79;100.00;100074.63;683027;28;1410;-68
2022/09/09 02:21:58;;;;;;;3.97;1.40;;;;;;;15.80;100.00;100066.69;685015;28;4275;-69
2022/09/09 02:22:23;;;;;;;3.75;1.50;;;;;;;15.79;100.00;100074.63;682528;28;1382;-69
2022/09/09 02:22:49;;;;;;;3.60;1.38;;;;;;;15.78;100.00;100070.28;685990;28;1240;-69
2022/09/09 02:23:12;;;;;;;4.57;1.40;;;;;;;15.80;100.00;100074.59;687359;28;1686;-69
2022/09/09 02:23:35;;;;;;;4.40;1.48;;;;;;;15.80;100.00;100077.25;688490;28;1302;-68
2022/09/09 02:24:05;;;;;;;3.30;1.40;;;;;;;15.82;100.00;100069.28;689445;28;1276;-69
2022/09/09 02:24:29;;;;;;;3.67;1.40;;;;;;;15.82;100.00;100074.53;691533;28;1427;-68
2022/09/09 02:25:05;;;;;;;4.13;1.42;;;;;;;16.07;100.00;100077.16;691070;28;5012;-68
2022/09/09 02:25:29;;;;;;;3.35;1.30;;;;;;;15.96;100.00;100072.28;687323;28;1519;-68
2022/09/09 02:25:57;;;;;;;5.55;1.48;;;;;;;16.07;100.00;100071.88;683302;28;1236;-68
2022/09/09 02:26:23;;;;;;;3.55;1.38;;;;;;;15.99;100.00;100072.16;685731;28;1639;-68
2022/09/09 02:26:52;;;;;;;4.60;1.40;;;;;;;15.95;100.00;100075.84;694597;28;1287;-68
2022/09/09 02:27:16;;;;;;;4.03;1.40;;;;;;;15.90;100.00;100072.50;689959;28;1469;-69